sensor_id;sensor_type;location;lat;lon;timestamp;temperature;humidity
5258;DHT22;2651;51.594;9.928;2022-12-07T00:00:03;3.00;99.90
5258;DHT22;2651;51.594;9.928;2022-12-07T00:01:13;2.90;99.90
5258;DHT22;2651;51.594;9.928;2022-12-07T00:02:15;2.90;99.90
5258;DHT22;2651;51.594;9.928;2022-12-07T00:03:16;2.90;99.90
5258;DHT22;2651;51.594;9.928;2022-12-07T00:04:18;3.00;99.90
5258;DHT22;2651;51.594;9.928;2022-12-07T00:05:20;3.00;99.90
5258;DHT22;2651;51.594;9.928;2022-12-07T00:06:22;3.00;99.90
5258;DHT22;2651;51.594;9.928;2022-12-07T00:07:24;3.00;99.90
5258;DHT22;2651;51.594;9.928;2022-12-07T00:08:28;3.10;99.90
5258;DHT22;2651;51.594;9.928;2022-12-07T00:09:31;3.00;99.90
5258;DHT22;2651;51.594;9.928;2022-12-07T00:10:35;3.10;99.90
5258;DHT22;2651;51.594;9.928;2022-12-07T00:11:37;3.00;99.90
5258;DHT22;2651;51.594;9.928;2022-12-07T00:12:38;3.00;99.90
5258;DHT22;2651;51.594;9.928;2022-12-07T00:13:41;3.00;99.90
5258;DHT22;2651;51.594;9.928;2022-12-07T00:14:42;3.00;99.90
5258;DHT22;2651;51.594;9.928;2022-12-07T00:15:44;3.00;99.90
5258;DHT22;2651;51.594;9.928;2022-12-07T00:16:51;3.00;99.90
5258;DHT22;2651;51.594;9.928;2022-12-07T00:17:53;3.10;99.90
5258;DHT22;2651;51.594;9.928;2022-12-07T00:18:55;3.10;99.90
5258;DHT22;2651;51.594;9.928;2022-12-07T00:19:57;3.10;99.90
5258;DHT22;2651;51.594;9.928;2022-12-07T00:21:04;3.00;99.90
5258;DHT22;2651;51.594;9.928;2022-12-07T00:22:06;3.10;99.90
5258;DHT22;2651;51.594;9.928;2022-12-07T00:23:07;3.10;99.90
5258;DHT22;2651;51.594;9.928;2022-12-07T00:24:09;3.10;99.90
5258;DHT22;2651;51.594;9.928;2022-12-07T00:25:12;3.00;99.90
5258;DHT22;2651;51.594;9.928;2022-12-07T00:26:20;3.00;99.90
5258;DHT22;2651;51.594;9.928;2022-12-07T00:27:22;3.00;99.90
5258;DHT22;2651;51.594;9.928;2022-12-07T00:28:24;3.00;99.90
5258;DHT22;2651;51.594;9.928;2022-12-07T00:29:25;3.00;99.90
5258;DHT22;2651;51.594;9.928;2022-12-07T00:30:27;3.00;99.90
5258;DHT22;2651;51.594;9.928;2022-12-07T00:31:32;3.00;99.90
5258;DHT22;2651;51.594;9.928;2022-12-07T00:32:35;3.00;99.90
5258;DHT22;2651;51.594;9.928;2022-12-07T00:33:37;3.00;99.90
5258;DHT22;2651;51.594;9.928;2022-12-07T00:34:39;3.00;99.90
5258;DHT22;2651;51.594;9.928;2022-12-07T00:35:41;3.00;99.90
5258;DHT22;2651;51.594;9.928;2022-12-07T00:36:42;3.00;99.90
5258;DHT22;2651;51.594;9.928;2022-12-07T00:37:44;3.00;99.90
5258;DHT22;2651;51.594;9.928;2022-12-07T00:38:46;3.00;99.90
5258;DHT22;2651;51.594;9.928;2022-12-07T00:39:47;3.00;99.90
5258;DHT22;2651;51.594;9.928;2022-12-07T00:41:00;3.10;99.90
5258;DHT22;2651;51.594;9.928;2022-12-07T00:42:02;3.00;99.90
5258;DHT22;2651;51.594;9.928;2022-12-07T00:43:04;3.00;99.90
5258;DHT22;2651;51.594;9.928;2022-12-07T00:44:05;3.00;99.90
5258;DHT22;2651;51.594;9.928;2022-12-07T00:45:08;3.00;99.90
5258;DHT22;2651;51.594;9.928;2022-12-07T00:46:10;3.00;99.90
5258;DHT22;2651;51.594;9.928;2022-12-07T00:47:12;3.00;99.90
5258;DHT22;2651;51.594;9.928;2022-12-07T00:48:14;3.00;99.90
5258;DHT22;2651;51.594;9.928;2022-12-07T00:49:15;3.00;99.90
5258;DHT22;2651;51.594;9.928;2022-12-07T00:50:17;3.00;99.90
5258;DHT22;2651;51.594;9.928;2022-12-07T00:51:21;3.00;99.90
5258;DHT22;2651;51.594;9.928;2022-12-07T00:52:23;2.90;99.90
5258;DHT22;2651;51.594;9.928;2022-12-07T00:53:24;2.90;99.90
5258;DHT22;2651;51.594;9.928;2022-12-07T00:54:26;2.90;99.90
5258;DHT22;2651;51.594;9.928;2022-12-07T00:55:28;2.90;99.90
5258;DHT22;2651;51.594;9.928;2022-12-07T00:56:29;2.90;99.90
5258;DHT22;2651;51.594;9.928;2022-12-07T00:57:31;2.90;99.90
5258;DHT22;2651;51.594;9.928;2022-12-07T00:58:33;2.90;99.90
5258;DHT22;2651;51.594;9.928;2022-12-07T00:59:34;2.90;99.90
5258;DHT22;2651;51.594;9.928;2022-12-07T01:00:37;2.90;99.90
5258;DHT22;2651;51.594;9.928;2022-12-07T01:01:39;2.90;99.90
5258;DHT22;2651;51.594;9.928;2022-12-07T01:02:41;2.90;99.90
5258;DHT22;2651;51.594;9.928;2022-12-07T01:03:43;2.90;99.90
5258;DHT22;2651;51.594;9.928;2022-12-07T01:04:44;2.90;99.90
5258;DHT22;2651;51.594;9.928;2022-12-07T01:05:53;3.00;99.90
5258;DHT22;2651;51.594;9.928;2022-12-07T01:06:56;2.90;99.90
5258;DHT22;2651;51.594;9.928;2022-12-07T01:07:57;2.90;99.90
5258;DHT22;2651;51.594;9.928;2022-12-07T01:09:00;2.90;99.90
5258;DHT22;2651;51.594;9.928;2022-12-07T01:10:02;2.90;99.90
5258;DHT22;2651;51.594;9.928;2022-12-07T01:11:07;2.90;99.90
5258;DHT22;2651;51.594;9.928;2022-12-07T01:12:08;2.90;99.90
5258;DHT22;2651;51.594;9.928;2022-12-07T01:13:10;3.00;99.90
5258;DHT22;2651;51.594;9.928;2022-12-07T01:14:12;3.00;99.90
5258;DHT22;2651;51.594;9.928;2022-12-07T01:15:14;3.00;99.90
5258;DHT22;2651;51.594;9.928;2022-12-07T01:16:16;3.00;99.90
5258;DHT22;2651;51.594;9.928;2022-12-07T01:17:18;3.00;99.90
5258;DHT22;2651;51.594;9.928;2022-12-07T01:18:20;3.00;99.90
5258;DHT22;2651;51.594;9.928;2022-12-07T01:19:21;3.00;99.90
5258;DHT22;2651;51.594;9.928;2022-12-07T01:20:23;3.00;99.90
5258;DHT22;2651;51.594;9.928;2022-12-07T01:21:27;3.00;99.90
5258;DHT22;2651;51.594;9.928;2022-12-07T01:22:29;3.00;99.90
5258;DHT22;2651;51.594;9.928;2022-12-07T01:23:32;3.00;99.90
5258;DHT22;2651;51.594;9.928;2022-12-07T01:24:33;3.00;99.90
5258;DHT22;2651;51.594;9.928;2022-12-07T01:25:35;3.00;99.90
5258;DHT22;2651;51.594;9.928;2022-12-07T01:26:37;3.00;99.90
5258;DHT22;2651;51.594;9.928;2022-12-07T01:27:39;3.00;99.90
5258;DHT22;2651;51.594;9.928;2022-12-07T01:28:41;2.90;99.90
5258;DHT22;2651;51.594;9.928;2022-12-07T01:29:42;3.00;99.90
5258;DHT22;2651;51.594;9.928;2022-12-07T01:30:44;3.00;99.90
5258;DHT22;2651;51.594;9.928;2022-12-07T01:31:48;2.90;99.90
5258;DHT22;2651;51.594;9.928;2022-12-07T01:32:50;3.00;99.90
5258;DHT22;2651;51.594;9.928;2022-12-07T01:33:54;2.90;99.90
5258;DHT22;2651;51.594;9.928;2022-12-07T01:34:56;2.90;99.90
5258;DHT22;2651;51.594;9.928;2022-12-07T01:36:06;3.00;99.90
5258;DHT22;2651;51.594;9.928;2022-12-07T01:37:08;3.00;99.90
5258;DHT22;2651;51.594;9.928;2022-12-07T01:38:10;3.00;99.90
5258;DHT22;2651;51.594;9.928;2022-12-07T01:39:11;2.90;99.90
5258;DHT22;2651;51.594;9.928;2022-12-07T01:40:13;3.00;99.90
5258;DHT22;2651;51.594;9.928;2022-12-07T01:41:15;2.90;99.90
5258;DHT22;2651;51.594;9.928;2022-12-07T01:42:17;3.00;99.90
5258;DHT22;2651;51.594;9.928;2022-12-07T01:43:20;3.00;99.90
5258;DHT22;2651;51.594;9.928;2022-12-07T01:45:38;2.90;99.90
5258;DHT22;2651;51.594;9.928;2022-12-07T01:46:45;3.00;99.90
5258;DHT22;2651;51.594;9.928;2022-12-07T01:47:52;3.00;99.90
5258;DHT22;2651;51.594;9.928;2022-12-07T01:48:54;3.00;99.90
5258;DHT22;2651;51.594;9.928;2022-12-07T01:49:56;3.00;99.90
5258;DHT22;2651;51.594;9.928;2022-12-07T01:51:02;3.00;99.90
5258;DHT22;2651;51.594;9.928;2022-12-07T01:53:21;2.90;99.90
5258;DHT22;2651;51.594;9.928;2022-12-07T01:54:26;3.00;99.90
5258;DHT22;2651;51.594;9.928;2022-12-07T01:55:28;3.00;99.90
5258;DHT22;2651;51.594;9.928;2022-12-07T01:56:31;3.00;99.90
5258;DHT22;2651;51.594;9.928;2022-12-07T01:57:35;3.00;99.90
5258;DHT22;2651;51.594;9.928;2022-12-07T01:58:38;3.00;99.90
5258;DHT22;2651;51.594;9.928;2022-12-07T01:59:40;3.10;99.90
5258;DHT22;2651;51.594;9.928;2022-12-07T02:00:42;3.00;99.90
5258;DHT22;2651;51.594;9.928;2022-12-07T02:01:44;3.10;99.90
5258;DHT22;2651;51.594;9.928;2022-12-07T02:02:57;3.10;99.90
5258;DHT22;2651;51.594;9.928;2022-12-07T02:04:01;3.10;99.90
5258;DHT22;2651;51.594;9.928;2022-12-07T02:05:05;3.10;99.90
5258;DHT22;2651;51.594;9.928;2022-12-07T02:06:08;3.10;99.90
5258;DHT22;2651;51.594;9.928;2022-12-07T02:07:13;3.20;99.90
5258;DHT22;2651;51.594;9.928;2022-12-07T02:08:16;3.10;99.90
5258;DHT22;2651;51.594;9.928;2022-12-07T02:09:18;3.10;99.90
5258;DHT22;2651;51.594;9.928;2022-12-07T02:11:22;3.00;99.90
5258;DHT22;2651;51.594;9.928;2022-12-07T02:12:24;3.00;99.90
5258;DHT22;2651;51.594;9.928;2022-12-07T02:13:31;3.00;99.90
5258;DHT22;2651;51.594;9.928;2022-12-07T02:14:33;3.10;99.90
5258;DHT22;2651;51.594;9.928;2022-12-07T02:15:59;3.10;99.90
5258;DHT22;2651;51.594;9.928;2022-12-07T02:18:23;3.10;99.90
5258;DHT22;2651;51.594;9.928;2022-12-07T02:19:45;3.10;99.90
5258;DHT22;2651;51.594;9.928;2022-12-07T02:22:51;3.10;99.90
5258;DHT22;2651;51.594;9.928;2022-12-07T02:24:28;3.10;99.90
5258;DHT22;2651;51.594;9.928;2022-12-07T02:27:17;3.10;99.90
5258;DHT22;2651;51.594;9.928;2022-12-07T02:28:35;3.20;99.90
5258;DHT22;2651;51.594;9.928;2022-12-07T02:31:14;3.20;99.90
5258;DHT22;2651;51.594;9.928;2022-12-07T02:33:45;3.20;99.90
5258;DHT22;2651;51.594;9.928;2022-12-07T02:35:39;3.20;99.90
5258;DHT22;2651;51.594;9.928;2022-12-07T02:36:46;3.20;99.90
5258;DHT22;2651;51.594;9.928;2022-12-07T02:38:04;3.20;99.90
5258;DHT22;2651;51.594;9.928;2022-12-07T02:39:15;3.20;99.90
5258;DHT22;2651;51.594;9.928;2022-12-07T02:40:25;3.20;99.90
5258;DHT22;2651;51.594;9.928;2022-12-07T02:41:38;3.20;99.90
5258;DHT22;2651;51.594;9.928;2022-12-07T02:42:49;3.20;99.90
5258;DHT22;2651;51.594;9.928;2022-12-07T02:43:54;3.20;99.90
5258;DHT22;2651;51.594;9.928;2022-12-07T02:44:58;3.20;99.90
5258;DHT22;2651;51.594;9.928;2022-12-07T02:46:07;3.20;99.90
5258;DHT22;2651;51.594;9.928;2022-12-07T02:47:11;3.20;99.90
5258;DHT22;2651;51.594;9.928;2022-12-07T02:48:16;3.20;99.90
5258;DHT22;2651;51.594;9.928;2022-12-07T02:49:22;3.30;99.90
5258;DHT22;2651;51.594;9.928;2022-12-07T02:50:24;3.30;99.90
5258;DHT22;2651;51.594;9.928;2022-12-07T02:51:27;3.30;99.90
5258;DHT22;2651;51.594;9.928;2022-12-07T02:52:30;3.30;99.90
5258;DHT22;2651;51.594;9.928;2022-12-07T02:53:37;3.30;99.90
5258;DHT22;2651;51.594;9.928;2022-12-07T02:54:39;3.30;99.90
5258;DHT22;2651;51.594;9.928;2022-12-07T02:55:41;3.30;99.90
5258;DHT22;2651;51.594;9.928;2022-12-07T02:58:06;3.30;99.90
5258;DHT22;2651;51.594;9.928;2022-12-07T03:02:12;3.20;99.90
5258;DHT22;2651;51.594;9.928;2022-12-07T03:03:17;3.20;99.90
5258;DHT22;2651;51.594;9.928;2022-12-07T03:06:04;3.30;99.90
5258;DHT22;2651;51.594;9.928;2022-12-07T03:07:18;3.30;99.90
5258;DHT22;2651;51.594;9.928;2022-12-07T03:09:28;3.30;99.90
5258;DHT22;2651;51.594;9.928;2022-12-07T03:10:56;3.30;99.90
5258;DHT22;2651;51.594;9.928;2022-12-07T03:12:20;3.30;99.90
5258;DHT22;2651;51.594;9.928;2022-12-07T03:14:35;3.30;99.90
5258;DHT22;2651;51.594;9.928;2022-12-07T03:17:14;3.20;99.90
5258;DHT22;2651;51.594;9.928;2022-12-07T03:18:20;3.30;99.90
5258;DHT22;2651;51.594;9.928;2022-12-07T03:19:26;3.30;99.90
5258;DHT22;2651;51.594;9.928;2022-12-07T03:20:29;3.30;99.90
5258;DHT22;2651;51.594;9.928;2022-12-07T03:21:38;3.30;99.90
5258;DHT22;2651;51.594;9.928;2022-12-07T03:22:41;3.20;99.90
5258;DHT22;2651;51.594;9.928;2022-12-07T03:23:49;3.20;99.90
5258;DHT22;2651;51.594;9.928;2022-12-07T03:25:00;3.30;99.90
5258;DHT22;2651;51.594;9.928;2022-12-07T03:26:03;3.30;99.90
5258;DHT22;2651;51.594;9.928;2022-12-07T03:27:19;3.30;99.90
5258;DHT22;2651;51.594;9.928;2022-12-07T03:28:24;3.30;99.90
5258;DHT22;2651;51.594;9.928;2022-12-07T03:29:37;3.30;99.90
5258;DHT22;2651;51.594;9.928;2022-12-07T03:30:57;3.30;99.90
5258;DHT22;2651;51.594;9.928;2022-12-07T03:33:13;3.30;99.90
5258;DHT22;2651;51.594;9.928;2022-12-07T03:34:51;3.30;99.90
5258;DHT22;2651;51.594;9.928;2022-12-07T03:36:04;3.30;99.90
5258;DHT22;2651;51.594;9.928;2022-12-07T03:37:12;3.30;99.90
5258;DHT22;2651;51.594;9.928;2022-12-07T03:38:21;3.40;99.90
5258;DHT22;2651;51.594;9.928;2022-12-07T03:41:59;3.40;99.90
5258;DHT22;2651;51.594;9.928;2022-12-07T03:43:03;3.40;99.90
5258;DHT22;2651;51.594;9.928;2022-12-07T03:44:05;3.40;99.90
5258;DHT22;2651;51.594;9.928;2022-12-07T03:45:09;3.40;99.90
5258;DHT22;2651;51.594;9.928;2022-12-07T03:46:37;3.40;99.90
5258;DHT22;2651;51.594;9.928;2022-12-07T03:50:52;3.50;99.90
5258;DHT22;2651;51.594;9.928;2022-12-07T03:56:04;3.60;99.90
5258;DHT22;2651;51.594;9.928;2022-12-07T03:57:08;3.60;99.90
5258;DHT22;2651;51.594;9.928;2022-12-07T03:58:17;3.50;99.90
5258;DHT22;2651;51.594;9.928;2022-12-07T03:59:20;3.60;99.90
5258;DHT22;2651;51.594;9.928;2022-12-07T04:00:22;3.60;99.90
5258;DHT22;2651;51.594;9.928;2022-12-07T04:01:24;3.60;99.90
5258;DHT22;2651;51.594;9.928;2022-12-07T04:02:27;3.70;99.90
5258;DHT22;2651;51.594;9.928;2022-12-07T04:03:30;3.70;99.90
5258;DHT22;2651;51.594;9.928;2022-12-07T04:04:32;3.70;99.90
5258;DHT22;2651;51.594;9.928;2022-12-07T04:05:35;3.70;99.90
5258;DHT22;2651;51.594;9.928;2022-12-07T04:06:36;3.70;99.90
5258;DHT22;2651;51.594;9.928;2022-12-07T04:07:38;3.70;99.90
5258;DHT22;2651;51.594;9.928;2022-12-07T04:08:40;3.70;99.90
5258;DHT22;2651;51.594;9.928;2022-12-07T04:09:42;3.70;99.90
5258;DHT22;2651;51.594;9.928;2022-12-07T04:10:43;3.70;99.90
5258;DHT22;2651;51.594;9.928;2022-12-07T04:11:45;3.70;99.90
5258;DHT22;2651;51.594;9.928;2022-12-07T04:12:47;3.70;99.90
5258;DHT22;2651;51.594;9.928;2022-12-07T04:13:48;3.70;99.90
5258;DHT22;2651;51.594;9.928;2022-12-07T04:15:09;3.70;99.90
5258;DHT22;2651;51.594;9.928;2022-12-07T04:16:10;3.70;99.90
5258;DHT22;2651;51.594;9.928;2022-12-07T04:17:12;3.60;99.90
5258;DHT22;2651;51.594;9.928;2022-12-07T04:18:14;3.70;99.90
5258;DHT22;2651;51.594;9.928;2022-12-07T04:19:18;3.70;99.90
5258;DHT22;2651;51.594;9.928;2022-12-07T04:20:20;3.70;99.90
5258;DHT22;2651;51.594;9.928;2022-12-07T04:21:21;3.70;99.90
5258;DHT22;2651;51.594;9.928;2022-12-07T04:22:23;3.70;99.90
5258;DHT22;2651;51.594;9.928;2022-12-07T04:23:25;3.70;99.90
5258;DHT22;2651;51.594;9.928;2022-12-07T04:24:26;3.70;99.90
5258;DHT22;2651;51.594;9.928;2022-12-07T04:25:28;3.70;99.90
5258;DHT22;2651;51.594;9.928;2022-12-07T04:26:30;3.60;99.90
5258;DHT22;2651;51.594;9.928;2022-12-07T04:27:31;3.60;99.90
5258;DHT22;2651;51.594;9.928;2022-12-07T04:28:33;3.60;99.90
5258;DHT22;2651;51.594;9.928;2022-12-07T04:29:35;3.60;99.90
5258;DHT22;2651;51.594;9.928;2022-12-07T04:30:36;3.60;99.90
5258;DHT22;2651;51.594;9.928;2022-12-07T04:31:38;3.50;99.90
5258;DHT22;2651;51.594;9.928;2022-12-07T04:32:40;3.60;99.90
5258;DHT22;2651;51.594;9.928;2022-12-07T04:33:42;3.50;99.90
5258;DHT22;2651;51.594;9.928;2022-12-07T04:34:43;3.50;99.90
5258;DHT22;2651;51.594;9.928;2022-12-07T04:35:45;3.50;99.90
5258;DHT22;2651;51.594;9.928;2022-12-07T04:36:47;3.50;99.90
5258;DHT22;2651;51.594;9.928;2022-12-07T04:37:49;3.50;99.90
5258;DHT22;2651;51.594;9.928;2022-12-07T04:38:53;3.50;99.90
5258;DHT22;2651;51.594;9.928;2022-12-07T04:39:56;3.50;99.90
5258;DHT22;2651;51.594;9.928;2022-12-07T04:40:57;3.50;99.90
5258;DHT22;2651;51.594;9.928;2022-12-07T04:42:00;3.40;99.90
5258;DHT22;2651;51.594;9.928;2022-12-07T04:43:02;3.50;99.90
5258;DHT22;2651;51.594;9.928;2022-12-07T04:44:04;3.40;99.90
5258;DHT22;2651;51.594;9.928;2022-12-07T04:45:09;3.40;99.90
5258;DHT22;2651;51.594;9.928;2022-12-07T04:46:10;3.40;99.90
5258;DHT22;2651;51.594;9.928;2022-12-07T04:47:12;3.40;99.90
5258;DHT22;2651;51.594;9.928;2022-12-07T04:48:14;3.30;99.90
5258;DHT22;2651;51.594;9.928;2022-12-07T04:49:17;3.30;99.90
5258;DHT22;2651;51.594;9.928;2022-12-07T04:50:19;3.40;99.90
5258;DHT22;2651;51.594;9.928;2022-12-07T04:51:26;3.40;99.90
5258;DHT22;2651;51.594;9.928;2022-12-07T04:52:28;3.40;99.90
5258;DHT22;2651;51.594;9.928;2022-12-07T04:53:30;3.40;99.90
5258;DHT22;2651;51.594;9.928;2022-12-07T04:54:31;3.30;99.90
5258;DHT22;2651;51.594;9.928;2022-12-07T04:55:33;3.30;99.90
5258;DHT22;2651;51.594;9.928;2022-12-07T04:56:35;3.40;99.90
5258;DHT22;2651;51.594;9.928;2022-12-07T04:57:36;3.40;99.90
5258;DHT22;2651;51.594;9.928;2022-12-07T04:58:38;3.30;99.90
5258;DHT22;2651;51.594;9.928;2022-12-07T04:59:39;3.30;99.90
5258;DHT22;2651;51.594;9.928;2022-12-07T05:00:46;3.30;99.90
5258;DHT22;2651;51.594;9.928;2022-12-07T05:01:48;3.30;99.90
5258;DHT22;2651;51.594;9.928;2022-12-07T05:02:50;3.30;99.90
5258;DHT22;2651;51.594;9.928;2022-12-07T05:03:52;3.30;99.90
5258;DHT22;2651;51.594;9.928;2022-12-07T05:04:53;3.30;99.90
5258;DHT22;2651;51.594;9.928;2022-12-07T05:05:55;3.30;99.90
5258;DHT22;2651;51.594;9.928;2022-12-07T05:06:56;3.40;99.90
5258;DHT22;2651;51.594;9.928;2022-12-07T05:07:58;3.40;99.90
5258;DHT22;2651;51.594;9.928;2022-12-07T05:09:01;3.40;99.90
5258;DHT22;2651;51.594;9.928;2022-12-07T05:10:03;3.50;99.90
5258;DHT22;2651;51.594;9.928;2022-12-07T05:11:05;3.50;99.90
5258;DHT22;2651;51.594;9.928;2022-12-07T05:12:07;3.50;99.90
5258;DHT22;2651;51.594;9.928;2022-12-07T05:13:09;3.50;99.90
5258;DHT22;2651;51.594;9.928;2022-12-07T05:14:16;3.40;99.90
5258;DHT22;2651;51.594;9.928;2022-12-07T05:15:18;3.50;99.90
5258;DHT22;2651;51.594;9.928;2022-12-07T05:16:20;3.50;99.90
5258;DHT22;2651;51.594;9.928;2022-12-07T05:17:22;3.50;99.90
5258;DHT22;2651;51.594;9.928;2022-12-07T05:18:23;3.50;99.90
5258;DHT22;2651;51.594;9.928;2022-12-07T05:19:25;3.50;99.90
5258;DHT22;2651;51.594;9.928;2022-12-07T05:20:27;3.50;99.90
5258;DHT22;2651;51.594;9.928;2022-12-07T05:21:29;3.60;99.90
5258;DHT22;2651;51.594;9.928;2022-12-07T05:22:31;3.60;99.90
5258;DHT22;2651;51.594;9.928;2022-12-07T05:23:32;3.60;99.90
5258;DHT22;2651;51.594;9.928;2022-12-07T05:24:34;3.60;99.90
5258;DHT22;2651;51.594;9.928;2022-12-07T05:25:36;3.60;99.90
5258;DHT22;2651;51.594;9.928;2022-12-07T05:26:37;3.60;99.90
5258;DHT22;2651;51.594;9.928;2022-12-07T05:27:39;3.60;99.90
5258;DHT22;2651;51.594;9.928;2022-12-07T05:28:41;3.70;99.90
5258;DHT22;2651;51.594;9.928;2022-12-07T05:29:42;3.70;99.90
5258;DHT22;2651;51.594;9.928;2022-12-07T05:30:44;3.70;99.90
5258;DHT22;2651;51.594;9.928;2022-12-07T05:31:45;3.60;99.90
5258;DHT22;2651;51.594;9.928;2022-12-07T05:32:47;3.60;99.90
5258;DHT22;2651;51.594;9.928;2022-12-07T05:33:49;3.70;99.90
5258;DHT22;2651;51.594;9.928;2022-12-07T05:34:50;3.70;99.90
5258;DHT22;2651;51.594;9.928;2022-12-07T05:35:52;3.70;99.90
5258;DHT22;2651;51.594;9.928;2022-12-07T05:36:54;3.70;99.90
5258;DHT22;2651;51.594;9.928;2022-12-07T05:37:55;3.80;99.90
5258;DHT22;2651;51.594;9.928;2022-12-07T05:38:59;3.80;99.90
5258;DHT22;2651;51.594;9.928;2022-12-07T05:40:00;3.80;99.90
5258;DHT22;2651;51.594;9.928;2022-12-07T05:41:04;3.80;99.90
5258;DHT22;2651;51.594;9.928;2022-12-07T05:42:06;3.80;99.90
5258;DHT22;2651;51.594;9.928;2022-12-07T05:43:14;3.80;99.90
5258;DHT22;2651;51.594;9.928;2022-12-07T05:44:15;3.80;99.90
5258;DHT22;2651;51.594;9.928;2022-12-07T05:45:17;3.90;99.90
5258;DHT22;2651;51.594;9.928;2022-12-07T05:46:19;3.90;99.90
5258;DHT22;2651;51.594;9.928;2022-12-07T05:47:20;3.80;99.90
5258;DHT22;2651;51.594;9.928;2022-12-07T05:48:22;3.90;99.90
5258;DHT22;2651;51.594;9.928;2022-12-07T05:49:24;3.80;99.90
5258;DHT22;2651;51.594;9.928;2022-12-07T05:50:25;3.90;99.90
5258;DHT22;2651;51.594;9.928;2022-12-07T05:51:27;3.90;99.90
5258;DHT22;2651;51.594;9.928;2022-12-07T05:52:29;3.90;99.90
5258;DHT22;2651;51.594;9.928;2022-12-07T05:53:30;3.90;99.90
5258;DHT22;2651;51.594;9.928;2022-12-07T05:54:32;3.90;99.90
5258;DHT22;2651;51.594;9.928;2022-12-07T05:55:34;3.90;99.90
5258;DHT22;2651;51.594;9.928;2022-12-07T05:56:36;3.90;99.90
5258;DHT22;2651;51.594;9.928;2022-12-07T05:57:38;3.90;99.90
5258;DHT22;2651;51.594;9.928;2022-12-07T05:58:39;3.90;99.90
5258;DHT22;2651;51.594;9.928;2022-12-07T05:59:59;3.90;99.90
5258;DHT22;2651;51.594;9.928;2022-12-07T06:01:02;3.90;99.90
5258;DHT22;2651;51.594;9.928;2022-12-07T06:02:06;3.90;99.90
5258;DHT22;2651;51.594;9.928;2022-12-07T06:03:08;3.90;99.90
5258;DHT22;2651;51.594;9.928;2022-12-07T06:04:10;3.90;99.90
5258;DHT22;2651;51.594;9.928;2022-12-07T06:05:11;3.90;99.90
5258;DHT22;2651;51.594;9.928;2022-12-07T06:06:13;3.90;99.90
5258;DHT22;2651;51.594;9.928;2022-12-07T06:07:15;3.90;99.90
5258;DHT22;2651;51.594;9.928;2022-12-07T06:09:22;3.90;99.90
5258;DHT22;2651;51.594;9.928;2022-12-07T06:10:24;3.90;99.90
5258;DHT22;2651;51.594;9.928;2022-12-07T06:11:25;3.90;99.90
5258;DHT22;2651;51.594;9.928;2022-12-07T06:12:59;3.90;99.90
5258;DHT22;2651;51.594;9.928;2022-12-07T06:14:01;3.90;99.90
5258;DHT22;2651;51.594;9.928;2022-12-07T06:15:03;3.90;99.90
5258;DHT22;2651;51.594;9.928;2022-12-07T06:16:05;3.90;99.90
5258;DHT22;2651;51.594;9.928;2022-12-07T06:17:07;3.90;99.90
5258;DHT22;2651;51.594;9.928;2022-12-07T06:18:08;3.90;99.90
5258;DHT22;2651;51.594;9.928;2022-12-07T06:19:10;3.90;99.90
5258;DHT22;2651;51.594;9.928;2022-12-07T06:20:12;4.00;99.90
5258;DHT22;2651;51.594;9.928;2022-12-07T06:21:13;4.00;99.90
5258;DHT22;2651;51.594;9.928;2022-12-07T06:22:16;3.90;99.90
5258;DHT22;2651;51.594;9.928;2022-12-07T06:23:17;4.00;99.90
5258;DHT22;2651;51.594;9.928;2022-12-07T06:24:19;3.90;99.90
5258;DHT22;2651;51.594;9.928;2022-12-07T06:25:21;4.00;99.90
5258;DHT22;2651;51.594;9.928;2022-12-07T06:26:22;4.00;99.90
5258;DHT22;2651;51.594;9.928;2022-12-07T06:27:24;4.00;99.90
5258;DHT22;2651;51.594;9.928;2022-12-07T06:28:26;4.00;99.90
5258;DHT22;2651;51.594;9.928;2022-12-07T06:29:27;3.90;99.90
5258;DHT22;2651;51.594;9.928;2022-12-07T06:30:29;4.00;99.90
5258;DHT22;2651;51.594;9.928;2022-12-07T06:31:31;4.00;99.90
5258;DHT22;2651;51.594;9.928;2022-12-07T06:32:33;4.00;99.90
5258;DHT22;2651;51.594;9.928;2022-12-07T06:33:35;4.00;99.90
5258;DHT22;2651;51.594;9.928;2022-12-07T06:34:37;4.00;99.90
5258;DHT22;2651;51.594;9.928;2022-12-07T06:35:38;4.10;99.90
5258;DHT22;2651;51.594;9.928;2022-12-07T06:36:40;4.10;99.90
5258;DHT22;2651;51.594;9.928;2022-12-07T06:37:42;4.00;99.90
5258;DHT22;2651;51.594;9.928;2022-12-07T06:38:44;4.00;99.90
5258;DHT22;2651;51.594;9.928;2022-12-07T06:39:45;4.00;99.90
5258;DHT22;2651;51.594;9.928;2022-12-07T06:40:47;4.00;99.90
5258;DHT22;2651;51.594;9.928;2022-12-07T06:41:50;4.00;99.90
5258;DHT22;2651;51.594;9.928;2022-12-07T06:42:53;3.90;99.90
5258;DHT22;2651;51.594;9.928;2022-12-07T06:43:54;3.90;99.90
5258;DHT22;2651;51.594;9.928;2022-12-07T06:44:57;4.00;99.90
5258;DHT22;2651;51.594;9.928;2022-12-07T06:45:58;3.90;99.90
5258;DHT22;2651;51.594;9.928;2022-12-07T06:47:00;4.00;99.90
5258;DHT22;2651;51.594;9.928;2022-12-07T06:48:22;4.00;99.90
5258;DHT22;2651;51.594;9.928;2022-12-07T06:49:23;4.00;99.90
5258;DHT22;2651;51.594;9.928;2022-12-07T06:50:25;4.00;99.90
5258;DHT22;2651;51.594;9.928;2022-12-07T06:51:27;4.00;99.90
5258;DHT22;2651;51.594;9.928;2022-12-07T06:52:30;4.00;99.90
5258;DHT22;2651;51.594;9.928;2022-12-07T06:53:31;3.90;99.90
5258;DHT22;2651;51.594;9.928;2022-12-07T06:54:33;3.90;99.90
5258;DHT22;2651;51.594;9.928;2022-12-07T06:55:35;3.90;99.90
5258;DHT22;2651;51.594;9.928;2022-12-07T06:56:37;3.90;99.90
5258;DHT22;2651;51.594;9.928;2022-12-07T06:57:38;3.90;99.90
5258;DHT22;2651;51.594;9.928;2022-12-07T06:58:40;3.90;99.90
5258;DHT22;2651;51.594;9.928;2022-12-07T06:59:42;4.00;99.90
5258;DHT22;2651;51.594;9.928;2022-12-07T07:00:44;4.00;99.90
5258;DHT22;2651;51.594;9.928;2022-12-07T07:01:46;4.00;99.90
5258;DHT22;2651;51.594;9.928;2022-12-07T07:02:48;4.00;99.90
5258;DHT22;2651;51.594;9.928;2022-12-07T07:03:50;4.00;99.90
5258;DHT22;2651;51.594;9.928;2022-12-07T07:04:51;4.00;99.90
5258;DHT22;2651;51.594;9.928;2022-12-07T07:05:53;4.00;99.90
5258;DHT22;2651;51.594;9.928;2022-12-07T07:06:54;4.00;99.90
5258;DHT22;2651;51.594;9.928;2022-12-07T07:08:00;4.00;99.90
5258;DHT22;2651;51.594;9.928;2022-12-07T07:09:22;4.00;99.90
5258;DHT22;2651;51.594;9.928;2022-12-07T07:10:24;4.00;99.90
5258;DHT22;2651;51.594;9.928;2022-12-07T07:11:25;4.00;99.90
5258;DHT22;2651;51.594;9.928;2022-12-07T07:12:27;4.00;99.90
5258;DHT22;2651;51.594;9.928;2022-12-07T07:13:29;4.00;99.90
5258;DHT22;2651;51.594;9.928;2022-12-07T07:14:31;4.00;99.90
5258;DHT22;2651;51.594;9.928;2022-12-07T07:15:33;4.00;99.90
5258;DHT22;2651;51.594;9.928;2022-12-07T07:16:35;4.00;99.90
5258;DHT22;2651;51.594;9.928;2022-12-07T07:17:37;4.00;99.90
5258;DHT22;2651;51.594;9.928;2022-12-07T07:18:39;4.00;99.90
5258;DHT22;2651;51.594;9.928;2022-12-07T07:19:40;3.90;99.90
5258;DHT22;2651;51.594;9.928;2022-12-07T07:20:42;3.90;99.90
5258;DHT22;2651;51.594;9.928;2022-12-07T07:21:44;3.90;99.90
5258;DHT22;2651;51.594;9.928;2022-12-07T07:22:45;3.90;99.90
5258;DHT22;2651;51.594;9.928;2022-12-07T07:23:47;3.90;99.90
5258;DHT22;2651;51.594;9.928;2022-12-07T07:24:48;3.90;99.90
5258;DHT22;2651;51.594;9.928;2022-12-07T07:25:50;3.90;99.90
5258;DHT22;2651;51.594;9.928;2022-12-07T07:26:52;3.90;99.90
5258;DHT22;2651;51.594;9.928;2022-12-07T07:27:53;3.90;99.90
5258;DHT22;2651;51.594;9.928;2022-12-07T07:28:55;3.90;99.90
5258;DHT22;2651;51.594;9.928;2022-12-07T07:29:57;3.90;99.90
5258;DHT22;2651;51.594;9.928;2022-12-07T07:30:58;4.00;99.90
5258;DHT22;2651;51.594;9.928;2022-12-07T07:32:00;4.00;99.90
5258;DHT22;2651;51.594;9.928;2022-12-07T07:33:07;4.00;99.90
5258;DHT22;2651;51.594;9.928;2022-12-07T07:34:09;4.00;99.90
5258;DHT22;2651;51.594;9.928;2022-12-07T07:35:10;4.00;99.90
5258;DHT22;2651;51.594;9.928;2022-12-07T07:36:12;4.00;99.90